createdAt,value
2018-11-01T05:01:21.913Z,4.20
2018-11-01T05:03:53.130Z,4.65
2018-11-01T05:06:21.529Z,5.00
2018-11-01T05:08:49.794Z,5.23
2018-11-01T05:11:18.399Z,5.30
2018-11-01T05:13:46.861Z,4.67
2018-11-01T05:16:15.159Z,4.80
2018-11-01T05:18:44.482Z,4.43
2018-11-01T05:21:13.326Z,4.78
2018-11-01T05:23:42.285Z,4.67
2018-11-01T05:26:10.419Z,4.35
2018-11-01T05:28:38.566Z,5.57
2018-11-01T05:31:06.753Z,5.77
2018-11-01T05:33:35.266Z,5.60
2018-11-01T05:36:03.429Z,4.77
2018-11-01T05:38:31.713Z,4.65
2018-11-01T05:40:59.786Z,5.20
2018-11-01T05:43:28.960Z,4.58
2018-11-01T05:45:57.758Z,4.50
2018-11-01T05:48:25.838Z,5.57
2018-11-01T05:50:54.006Z,16.67
2018-11-01T05:53:23.397Z,8.07
2018-11-01T05:55:51.962Z,4.73
2018-11-01T05:58:20.076Z,4.90
2018-11-01T06:00:48.973Z,4.15
2018-11-01T06:03:17.062Z,6.58
2018-11-01T06:05:45.210Z,4.05
2018-11-01T06:08:16.029Z,4.00
2018-11-01T06:10:44.161Z,4.10
2018-11-01T06:13:12.349Z,3.87
2018-11-01T06:15:40.441Z,5.77
2018-11-01T06:18:08.537Z,5.30
2018-11-01T06:20:36.700Z,4.40
2018-11-01T06:23:05.234Z,4.40
2018-11-01T06:25:33.574Z,4.20
2018-11-01T06:28:01.698Z,3.98
2018-11-01T06:30:30.364Z,3.90
2018-11-01T06:32:59.141Z,3.97
2018-11-01T06:35:36.280Z,3.77
2018-11-01T06:38:08.848Z,5.40
2018-11-01T06:40:41.802Z,6.90
2018-11-01T06:43:09.936Z,6.90
2018-11-01T06:45:38.029Z,6.93
2018-11-01T06:48:06.790Z,6.22
2018-11-01T06:50:34.950Z,5.53
2018-11-01T06:53:03.073Z,5.20
2018-11-01T06:55:31.173Z,4.60
2018-11-01T06:57:59.306Z,4.10
2018-11-01T07:00:27.408Z,3.93
2018-11-01T07:02:55.485Z,4.77
2018-11-01T07:05:23.611Z,5.30
2018-11-01T07:07:51.761Z,6.17
2018-11-01T07:10:21.761Z,5.70
2018-11-01T07:12:49.857Z,7.93
2018-11-01T07:15:18.068Z,7.73
2018-11-01T07:17:46.256Z,8.48
2018-11-01T07:20:15.609Z,8.37
2018-11-01T07:22:44.398Z,7.83
2018-11-01T07:25:13.875Z,8.67
2018-11-01T07:27:42.059Z,8.10
2018-11-01T07:30:12.609Z,8.23
2018-11-01T07:32:41.478Z,9.70
2018-11-01T07:35:10.493Z,9.70
2018-11-01T07:37:39.501Z,9.80
2018-11-01T07:40:09.098Z,8.80
2018-11-01T07:42:37.220Z,8.30
2018-11-01T07:45:06.108Z,8.20
2018-11-01T07:47:34.270Z,8.60
2018-11-01T07:50:02.419Z,6.80
2018-11-01T07:52:30.570Z,8.00
2018-11-01T07:54:58.672Z,7.80
2018-11-01T07:57:27.134Z,7.77
2018-11-01T07:59:55.254Z,8.30
2018-11-01T08:02:23.353Z,7.43
2018-11-01T08:04:51.483Z,7.50
2018-11-01T08:07:19.585Z,7.90
2018-11-01T08:09:47.699Z,7.30
2018-11-01T08:12:15.808Z,6.78
2018-11-01T08:14:43.911Z,7.13
2018-11-01T08:17:13.119Z,8.45
2018-11-01T08:19:41.435Z,8.07
2018-11-01T08:22:09.475Z,8.73
2018-11-01T08:24:37.565Z,10.43
2018-11-01T08:27:06.005Z,9.60
2018-11-01T08:29:34.127Z,7.87
2018-11-01T08:32:02.769Z,7.33
2018-11-01T08:34:30.956Z,7.08
2018-11-01T08:36:59.041Z,7.03
2018-11-01T08:39:27.194Z,9.87
2018-11-01T08:41:55.313Z,8.23
2018-11-01T08:44:23.523Z,8.70
2018-11-01T08:46:51.737Z,8.33
2018-11-01T08:49:19.904Z,7.70
2018-11-01T08:51:48.007Z,7.40
2018-11-01T08:54:16.140Z,6.97
2018-11-01T08:56:44.242Z,6.63
2018-11-01T08:59:12.375Z,6.37
2018-11-01T09:01:40.490Z,6.33
2018-11-01T09:04:08.697Z,7.00
2018-11-01T09:06:36.781Z,6.43
2018-11-01T09:09:06.644Z,5.73
2018-11-01T09:11:34.719Z,5.90
2018-11-01T09:14:03.311Z,5.87
2018-11-01T09:16:31.581Z,6.17
2018-11-01T09:18:59.672Z,6.17
2018-11-01T09:21:27.786Z,6.23
2018-11-01T09:23:55.891Z,6.47
2018-11-01T09:26:23.969Z,6.80
2018-11-01T09:28:52.123Z,6.70
2018-11-01T09:31:20.242Z,6.40
2018-11-01T09:33:48.344Z,5.93
2018-11-01T09:36:16.443Z,5.85
2018-11-01T09:38:44.621Z,6.50
2018-11-01T09:41:13.063Z,6.47
2018-11-01T09:43:41.438Z,6.03
2018-11-01T09:46:09.642Z,6.20
2018-11-01T09:48:38.125Z,6.17
2018-11-01T09:51:06.660Z,6.10
